Time;durP1;ratioP1;P1;durP2;ratioP2;P2;SDS_P1;SDS_P2;PMS_P1;PMS_P2;Temp;Humidity;BMP_temperature;BMP_pressure;BME280_temperature;BME280_humidity;BME280_pressure;Samples;Min_cycle;Max_cycle;Signal;HPM_P1;HPM_P2
2023/04/28 06:38:21;;;;;;;5.90;3.37;;;9.60;99.90;;;;;;5134800;27;20273;-81
2023/04/28 06:54:25;;;;;;;2.60;2.13;;;9.40;99.90;;;;;;5134837;27;20271;-82
2023/04/28 07:02:05;;;;;;;1.97;1.53;;;;;;;;;;5135243;27;20282;-83
2023/04/28 07:06:39;;;;;;;2.10;1.60;;;9.60;99.90;;;;;;5134565;27;20291;-82
2023/04/28 07:10:40;;;;;;;2.73;2.03;;;;;;;;;;5135404;27;20273;-84
2023/04/28 07:14:46;;;;;;;1.57;1.43;;;9.80;99.90;;;;;;5134195;27;20624;-82
2023/04/28 07:19:21;;;;;;;2.17;1.40;;;10.10;99.90;;;;;;5094136;27;20514;-82
2023/04/28 07:24:07;;;;;;;3.27;1.60;;;9.80;99.90;;;;;;5126300;27;20286;-82
2023/04/28 07:31:31;;;;;;;1.63;1.40;;;9.60;99.90;;;;;;5115701;27;20359;-82
2023/04/28 07:36:13;;;;;;;2.07;1.67;;;;;;;;;;5134966;27;20635;-83
2023/04/28 07:39:53;;;;;;;1.87;1.20;;;9.80;99.90;;;;;;5135075;27;20268;-83
2023/04/28 07:44:03;;;;;;;3.87;1.80;;;9.70;99.90;;;;;;5136662;27;20610;-83
2023/04/28 07:52:53;;;;;;;2.13;1.60;;;9.60;99.90;;;;;;5134586;27;20599;-82
2023/04/28 07:59:43;;;;;;;3.23;1.57;;;9.80;99.90;;;;;;5135657;27;20279;-81
2023/04/28 08:04:38;;;;;;;1.87;1.53;;;9.90;99.90;;;;;;5155601;27;20730;-81
2023/04/28 08:09:19;;;;;;;2.20;1.43;;;10.00;99.90;;;;;;5135643;27;20281;-83
2023/04/28 08:14:15;;;;;;;1.63;1.23;;;10.40;99.90;;;;;;5136031;27;20283;-83
2023/04/28 08:19:01;;;;;;;1.83;1.20;;;10.20;99.90;;;;;;5133573;27;20277;-82
2023/04/28 08:23:09;;;;;;;1.03;0.93;;;;;;;;;;5135968;27;20279;-82
2023/04/28 08:27:17;;;;;;;1.17;1.07;;;10.10;99.90;;;;;;5134634;27;20309;-82
2023/04/28 08:32:29;;;;;;;2.07;1.30;;;10.20;99.90;;;;;;5135818;27;20273;-82
2023/04/28 08:41:55;;;;;;;1.27;0.97;;;10.30;99.90;;;;;;5114787;27;20378;-83
2023/04/28 08:47:48;;;;;;;3.40;1.10;;;10.30;99.90;;;;;;5118419;27;20280;-83
2023/04/28 08:53:49;;;;;;;1.77;1.03;;;10.30;99.90;;;;;;5137835;27;20292;-84
2023/04/28 08:59:23;;;;;;;1.33;1.00;;;10.20;99.90;;;;;;5135269;27;20269;-84
2023/04/28 09:18:31;;;;;;;2.00;1.23;;;9.70;99.90;;;;;;5138114;27;20266;-84
2023/04/28 09:23:12;;;;;;;1.40;1.00;;;10.30;99.90;;;;;;5139464;27;20280;-81
2023/04/28 09:27:27;;;;;;;3.57;2.30;;;;;;;;;;5136189;27;20291;-81
2023/04/28 09:30:55;;;;;;;1.07;0.80;;;10.70;99.90;;;;;;5138616;27;20280;-83
2023/04/28 09:33:21;;;;;;;4.30;1.23;;;;;;;;;;5116062;28;20242;-80
2023/04/28 09:35:47;;;;;;;4.50;2.23;;;10.90;99.90;;;;;;5117717;28;20202;-82
2023/04/28 09:38:14;;;;;;;8.83;6.43;;;11.20;99.90;;;;;;5136930;27;20163;-82
2023/04/28 09:40:52;;;;;;;3.00;1.93;;;11.00;99.90;;;;;;5135981;27;20178;-81
2023/04/28 09:43:28;;;;;;;2.23;1.00;;;;;;;;;;5135732;27;20184;-81
2023/04/28 09:45:55;;;;;;;2.00;1.60;;;11.00;99.90;;;;;;5133978;28;20196;-82
2023/04/28 09:48:28;;;;;;;4.27;1.93;;;11.00;99.90;;;;;;5134434;28;20700;-81
2023/04/28 09:50:55;;;;;;;1.03;0.90;;;11.40;99.90;;;;;;5133986;28;20260;-82
2023/04/28 09:53:22;;;;;;;1.57;1.20;;;11.10;99.90;;;;;;5134489;28;20174;-83
2023/04/28 09:55:50;;;;;;;0.80;0.70;;;10.90;99.90;;;;;;5133704;28;20195;-84
2023/04/28 09:58:19;;;;;;;1.43;1.20;;;10.90;99.90;;;;;;5133934;28;20182;-81
2023/04/28 10:00:48;;;;;;;2.30;2.10;;;11.00;99.90;;;;;;5134829;28;20211;-82
2023/04/28 10:05:21;;;;;;;1.70;1.20;;;11.00;99.90;;;;;;5139928;27;20275;-83
2023/04/28 10:09:12;;;;;;;1.37;1.07;;;;;;;;;;5144092;27;20374;-83
2023/04/28 10:12:51;;;;;;;1.30;1.20;;;11.60;99.90;;;;;;5136387;27;20273;-82
2023/04/28 10:15:17;;;;;;;1.80;1.30;;;;;;;;;;5116603;28;20276;-81
2023/04/28 10:17:44;;;;;;;5.70;2.87;;;;;;;;;;5098349;28;20647;-85
2023/04/28 10:20:10;;;;;;;10.03;6.37;;;11.60;99.90;;;;;;5097549;28;20175;-83
2023/04/28 10:23:05;;;;;;;0.90;0.80;;;11.70;99.90;;;;;;5097156;28;20179;-81
2023/04/28 10:25:34;;;;;;;4.60;3.10;;;11.40;99.90;;;;;;5114298;28;20166;-83
2023/04/28 10:28:03;;;;;;;4.27;2.40;;;11.70;99.90;;;;;;5097651;28;20195;-83
2023/04/28 10:30:30;;;;;;;2.43;1.60;;;;;;;;;;5114980;28;20629;-83
2023/04/28 10:33:13;;;;;;;2.53;1.73;;;11.80;99.90;;;;;;5114914;28;20195;-83
2023/04/28 10:35:46;;;;;;;2.93;1.00;;;11.90;99.90;;;;;;5097266;28;20192;-83
2023/04/28 10:38:22;;;;;;;5.20;3.20;;;12.00;99.90;;;;;;5114876;28;20168;-84
2023/04/28 10:40:49;;;;;;;1.87;1.00;;;11.70;99.90;;;;;;5115663;28;20171;-83
2023/04/28 10:43:38;;;;;;;3.67;2.33;;;11.80;99.90;;;;;;5096287;28;20615;-84
2023/04/28 10:46:05;;;;;;;7.37;2.70;;;11.70;99.90;;;;;;5095532;28;20534;-82
2023/04/28 10:48:38;;;;;;;13.40;6.43;;;;;;;;;;5095238;28;20187;-82
2023/04/28 10:51:08;;;;;;;4.17;2.20;;;11.40;99.90;;;;;;5114085;28;20237;-85
2023/04/28 10:53:48;;;;;;;1.20;1.10;;;11.90;99.90;;;;;;5115499;28;20168;-84
2023/04/28 10:56:18;;;;;;;13.73;7.70;;;11.60;99.90;;;;;;5095360;28;20277;-85
2023/04/28 10:58:48;;;;;;;0.83;0.80;;;11.90;99.90;;;;;;5097147;28;20182;-84
2023/04/28 11:01:20;;;;;;;3.60;2.03;;;11.50;99.90;;;;;;5087464;28;20277;-82
2023/04/28 11:04:06;;;;;;;3.97;1.77;;;11.50;99.90;;;;;;5077347;28;20185;-84
2023/04/28 11:06:38;;;;;;;2.03;1.03;;;11.50;99.90;;;;;;5076799;28;20232;-86
2023/04/28 11:09:13;;;;;;;3.07;2.13;;;11.50;99.90;;;;;;5076492;28;20234;-83
2023/04/28 11:12:00;;;;;;;4.00;2.70;;;11.70;99.90;;;;;;5109844;28;20213;-83
2023/04/28 11:14:39;;;;;;;2.00;0.80;;;11.50;99.90;;;;;;5096506;28;20179;-82
2023/04/28 11:17:05;;;;;;;1.40;1.30;;;11.30;99.90;;;;;;5114423;28;20344;-82
2023/04/28 11:19:33;;;;;;;2.20;0.80;;;;;;;;;;5075151;28;20195;-82
2023/04/28 11:22:08;;;;;;;1.27;0.87;;;11.30;99.90;;;;;;5073752;28;20656;-86
2023/04/28 11:24:34;;;;;;;1.30;0.70;;;;;;;;;;5077865;28;20238;-84
2023/04/28 11:27:01;;;;;;;0.80;0.50;;;;;;;;;;5079779;28;20527;-83
2023/04/28 11:29:32;;;;;;;1.80;1.10;;;;;;;;;;5063254;28;20180;-84
2023/04/28 11:31:57;;;;;;;0.97;0.87;;;11.70;99.90;;;;;;5063160;28;20295;-85
2023/04/28 11:34:24;;;;;;;2.13;0.70;;;;;;;;;;5062402;28;20204;-85
2023/04/28 11:36:50;;;;;;;3.50;0.80;;;;;;;;;;5100982;28;20226;-83
2023/04/28 11:39:16;;;;;;;1.03;0.80;;;;;;;;;;5103781;28;20168;-84
2023/04/28 11:41:44;;;;;;;1.47;0.70;;;12.00;99.90;;;;;;5104780;28;20626;-79
2023/04/28 11:44:16;;;;;;;2.47;1.00;;;11.70;99.90;;;;;;5081088;28;20618;-82
2023/04/28 11:46:49;;;;;;;1.50;0.70;;;11.80;99.90;;;;;;5087191;28;20286;-84
2023/04/28 11:49:15;;;;;;;2.30;1.07;;;11.80;99.90;;;;;;5079926;28;20180;-83
2023/04/28 11:51:43;;;;;;;1.77;0.80;;;;;;;;;;5099207;28;20215;-82
2023/04/28 11:54:13;;;;;;;1.00;0.77;;;;;;;;;;5100214;28;20171;-80
2023/04/28 11:56:43;;;;;;;2.80;0.60;;;11.50;99.90;;;;;;5066171;28;20211;-83
2023/04/28 11:59:11;;;;;;;1.50;0.87;;;11.60;99.90;;;;;;5094696;28;20172;-79
2023/04/28 12:01:48;;;;;;;0.90;0.70;;;11.60;99.90;;;;;;5097250;28;20169;-82
2023/04/28 12:04:25;;;;;;;0.80;0.67;;;11.30;99.90;;;;;;5082553;28;20188;-85
2023/04/28 12:07:09;;;;;;;0.90;0.80;;;11.70;99.90;;;;;;5084071;28;20230;-84
2023/04/28 12:09:36;;;;;;;1.00;0.80;;;11.60;99.90;;;;;;5082503;28;20195;-84
2023/04/28 12:12:08;;;;;;;1.87;1.17;;;11.60;99.90;;;;;;5080351;28;20705;-84
2023/04/28 12:14:55;;;;;;;0.87;0.83;;;11.40;99.90;;;;;;5093940;28;20187;-83
2023/04/28 12:17:28;;;;;;;0.87;0.77;;;11.80;99.90;;;;;;5080556;28;20685;-81
2023/04/28 12:19:55;;;;;;;1.67;0.50;;;;;;;;;;5083492;28;20188;-83
2023/04/28 12:22:22;;;;;;;1.20;1.00;;;;;;;;;;5100232;28;20183;-82
2023/04/28 12:25:07;;;;;;;0.90;0.80;;;;;;;;;;5061375;28;20211;-85
2023/04/28 12:27:33;;;;;;;1.20;0.70;;;;;;;;;;5062001;28;20200;-84
2023/04/28 12:30:00;;;;;;;0.90;0.60;;;;;;;;;;5079961;28;20181;-83
2023/04/28 12:36:23;;;;;;;1.83;1.17;;;;;;;;;;5139218;27;20309;-87
2023/04/28 12:41:09;;;;;;;1.03;0.90;;;11.60;99.90;;;;;;5095082;27;1412707;-84
2023/04/28 12:45:15;;;;;;;1.03;0.90;;;11.70;99.90;;;;;;5112715;27;20546;-85
2023/04/28 12:47:41;;;;;;;1.10;0.80;;;;;;;;;;5117700;28;20195;-84
2023/04/28 12:50:07;;;;;;;0.90;0.80;;;;;;;;;;5114491;28;20175;-85
2023/04/28 12:52:34;;;;;;;1.37;0.63;;;;;;;;;;5113301;28;20176;-84
2023/04/28 12:55:00;;;;;;;1.27;0.90;;;;;;;;;;5103867;28;20215;-85
2023/04/28 12:57:27;;;;;;;1.23;0.80;;;13.00;99.90;;;;;;5099632;28;20237;-84
2023/04/28 12:59:55;;;;;;;1.23;0.77;;;13.40;99.90;;;;;;5114393;28;20191;-86
2023/04/28 13:02:20;;;;;;;0.77;0.77;;;13.40;99.90;;;;;;5128860;28;20198;-85
2023/04/28 13:04:46;;;;;;;0.90;0.70;;;13.50;99.90;;;;;;5122107;28;20199;-84
2023/04/28 13:07:12;;;;;;;1.03;0.73;;;13.60;99.90;;;;;;5102808;28;20199;-85
2023/04/28 13:09:38;;;;;;;0.70;0.60;;;13.60;99.90;;;;;;5114249;28;20190;-86
2023/04/28 13:12:04;;;;;;;1.10;0.80;;;;;;;;;;5102895;28;20248;-86
2023/04/28 13:14:30;;;;;;;0.73;0.63;;;13.60;99.90;;;;;;5099358;28;20305;-85
2023/04/28 13:16:59;;;;;;;1.27;0.70;;;;;;;;;;5115262;28;20237;-86
2023/04/28 13:19:26;;;;;;;0.70;0.70;;;13.20;99.90;;;;;;5114535;28;20236;-86
2023/04/28 13:21:52;;;;;;;1.80;0.73;;;13.10;99.90;;;;;;5115054;28;20559;-86
2023/04/28 13:24:18;;;;;;;0.70;0.70;;;;;;;;;;5134239;28;20207;-85
2023/04/28 13:26:44;;;;;;;1.20;0.90;;;13.30;99.90;;;;;;5102554;28;20208;-89
2023/04/28 13:29:10;;;;;;;0.83;0.80;;;;;;;;;;5110675;28;20237;-85
2023/04/28 13:31:36;;;;;;;0.83;0.60;;;13.50;99.90;;;;;;5116838;28;20188;-86
2023/04/28 13:34:04;;;;;;;1.53;1.10;;;;;;;;;;5115758;28;20179;-86
2023/04/28 13:36:31;;;;;;;0.90;0.80;;;13.50;99.90;;;;;;5116923;28;20192;-86
2023/04/28 13:38:57;;;;;;;1.93;0.80;;;13.50;99.90;;;;;;5115389;28;20180;-86
2023/04/28 13:41:23;;;;;;;0.60;0.60;;;;;;;;;;5106799;28;20280;-83
2023/04/28 13:43:49;;;;;;;1.40;0.73;;;;;;;;;;5113569;28;20570;-84
2023/04/28 13:46:14;;;;;;;1.40;0.63;;;13.30;99.90;;;;;;5113230;28;20191;-85
2023/04/28 13:48:41;;;;;;;1.00;0.80;;;;;;;;;;5112357;28;20186;-87
2023/04/28 13:51:07;;;;;;;2.37;1.00;;;13.50;99.90;;;;;;5111328;28;20272;-81
2023/04/28 13:53:34;;;;;;;1.13;0.83;;;13.70;99.90;;;;;;5111812;28;20607;-84
2023/04/28 13:56:00;;;;;;;0.60;0.60;;;13.60;99.90;;;;;;5096155;28;20298;-82
2023/04/28 13:58:27;;;;;;;2.23;0.80;;;13.50;99.90;;;;;;5097123;28;20188;-82
2023/04/28 14:00:54;;;;;;;0.67;0.67;;;13.40;99.90;;;;;;5098777;28;20180;-79
2023/04/28 14:03:21;;;;;;;0.60;0.60;;;13.40;99.90;;;;;;5098541;28;20289;-83
2023/04/28 14:05:48;;;;;;;0.80;0.80;;;13.30;99.90;;;;;;5101092;28;20196;-84
2023/04/28 14:08:21;;;;;;;4.00;0.70;;;13.30;99.90;;;;;;5101277;28;20188;-84
2023/04/28 14:10:50;;;;;;;1.40;1.00;;;13.40;99.90;;;;;;5097342;28;20233;-82
2023/04/28 14:13:17;;;;;;;0.60;0.60;;;13.60;99.90;;;;;;5097699;28;20252;-85
2023/04/28 14:15:44;;;;;;;0.90;0.70;;;13.70;99.90;;;;;;5098885;28;20203;-84
2023/04/28 14:18:10;;;;;;;0.80;0.67;;;14.00;99.90;;;;;;5096253;28;20188;-84
2023/04/28 14:20:36;;;;;;;0.93;0.73;;;14.00;99.90;;;;;;5091845;28;20203;-82
2023/04/28 14:23:02;;;;;;;3.33;0.87;;;;;;;;;;5082340;28;20580;-84
2023/04/28 14:25:28;;;;;;;0.70;0.70;;;13.80;99.90;;;;;;5082812;28;20177;-84
2023/04/28 14:27:55;;;;;;;0.90;0.67;;;13.80;99.90;;;;;;5096455;28;20187;-84
2023/04/28 14:30:21;;;;;;;1.73;0.90;;;13.80;99.90;;;;;;5102791;28;20249;-83
2023/04/28 14:32:47;;;;;;;1.20;1.00;;;13.70;99.90;;;;;;5098369;28;20168;-84
2023/04/28 14:35:14;;;;;;;2.47;1.10;;;13.70;99.90;;;;;;5098636;28;20187;-83
2023/04/28 14:37:40;;;;;;;1.27;0.93;;;13.70;99.90;;;;;;5093051;28;20205;-83
2023/04/28 14:40:06;;;;;;;1.30;1.20;;;13.80;99.90;;;;;;5080990;28;20544;-82
2023/04/28 14:42:35;;;;;;;1.10;1.00;;;13.70;99.90;;;;;;5088681;28;20177;-82
2023/04/28 14:45:03;;;;;;;1.50;1.20;;;13.80;99.90;;;;;;5095499;28;20207;-83
2023/04/28 14:47:29;;;;;;;1.03;1.03;;;13.90;99.90;;;;;;5096823;28;20199;-83
2023/04/28 14:49:55;;;;;;;2.17;1.10;;;13.80;99.90;;;;;;5097011;28;20691;-83
2023/04/28 14:52:21;;;;;;;1.80;1.40;;;;;;;;;;5093209;28;20208;-83
2023/04/28 14:54:50;;;;;;;1.80;1.50;;;13.60;99.90;;;;;;5076482;28;20268;-83
2023/04/28 14:57:17;;;;;;;3.57;2.17;;;13.60;99.90;;;;;;5093852;28;20197;-83
2023/04/28 14:59:43;;;;;;;3.00;1.90;;;13.60;99.90;;;;;;5096753;28;20654;-84
2023/04/28 15:02:09;;;;;;;1.27;1.17;;;13.60;99.90;;;;;;5116365;28;20214;-83
2023/04/28 15:04:35;;;;;;;1.60;1.50;;;;;;;;;;5099157;28;20204;-84
2023/04/28 15:07:01;;;;;;;5.13;4.33;;;14.40;99.90;;;;;;5077195;28;20200;-83
2023/04/28 15:09:27;;;;;;;2.40;2.20;;;13.60;99.90;;;;;;5078117;28;20188;-83
2023/04/28 15:11:53;;;;;;;12.90;10.23;;;13.50;99.90;;;;;;5077415;28;20264;-84
2023/04/28 15:14:19;;;;;;;5.27;4.00;;;13.60;99.90;;;;;;5078534;28;20189;-83
2023/04/28 15:16:46;;;;;;;2.53;1.70;;;13.60;99.90;;;;;;5079322;28;20347;-84
2023/04/28 15:19:13;;;;;;;2.70;2.50;;;13.60;99.90;;;;;;5077938;28;20593;-83
2023/04/28 15:21:39;;;;;;;4.40;2.37;;;13.50;99.90;;;;;;5077423;28;20181;-84
2023/04/28 15:24:05;;;;;;;3.27;2.77;;;13.50;99.90;;;;;;5077449;28;20346;-84
2023/04/28 15:34:18;;;;;;;2.90;2.60;;;13.50;99.90;;;;;;5135389;27;20276;-83
2023/04/28 15:40:42;;;;;;;4.97;4.23;;;13.60;99.90;;;;;;5135111;27;20275;-83
2023/04/28 15:49:03;;;;;;;4.27;2.70;;;13.50;99.90;;;;;;5140004;27;20281;-84
2023/04/28 15:58:00;;;;;;;3.97;2.10;;;13.30;99.90;;;;;;5126701;27;20282;-84
2023/04/28 16:02:56;;;;;;;3.17;1.70;;;13.60;99.90;;;;;;5134952;27;20285;-85
2023/04/28 16:07:12;;;;;;;3.63;2.23;;;13.80;99.90;;;;;;5135580;27;20279;-84
2023/04/28 16:09:38;;;;;;;2.17;1.80;;;;;;;;;;5129208;27;20262;-84
2023/04/28 16:13:37;;;;;;;2.40;2.00;;;14.00;99.90;;;;;;5135776;27;20740;-84
2023/04/28 16:19:04;;;;;;;1.87;1.77;;;14.00;99.90;;;;;;5156938;27;20354;-83
2023/04/28 16:26:11;;;;;;;3.33;2.20;;;13.60;99.90;;;;;;5134740;27;20291;-82
2023/04/28 16:36:17;;;;;;;1.87;1.43;;;13.90;99.90;;;;;;5133380;27;20294;-81
2023/04/28 16:44:19;;;;;;;2.97;1.80;;;;;;;;;;5134868;27;20281;-82
2023/04/28 16:49:53;;;;;;;15.37;10.30;;;14.00;99.90;;;;;;5135385;27;20283;-83
2023/04/28 16:54:14;;;;;;;5.10;3.80;;;14.40;99.90;;;;;;5176611;27;20504;-84
2023/04/28 16:59:50;;;;;;;5.30;4.77;;;14.00;99.90;;;;;;5136082;27;20662;-83
2023/04/28 17:03:46;;;;;;;5.10;3.37;;;;;;;;;;5136233;27;20281;-83
2023/04/28 17:07:31;;;;;;;10.53;8.33;;;;;;;;;;5122497;27;20295;-84
2023/04/28 17:13:25;;;;;;;3.60;3.03;;;;;;;;;;5141569;27;20717;-85
